sensor_id;sensor_type;location;lat;lon;timestamp;pressure;altitude;pressure_sealevel;temperature;humidity
34696;BME280;20918;51.138;17.370;2023-05-01T07:48:11;100595.77;;;16.60;39.96
34696;BME280;20918;51.138;17.370;2023-05-01T07:51:30;100590.89;;;16.57;39.26
34696;BME280;20918;51.138;17.370;2023-05-01T07:55:08;100591.38;;;16.41;38.10
34696;BME280;20918;51.138;17.370;2023-05-01T07:58:35;100589.02;;;16.35;38.68
34696;BME280;20918;51.138;17.370;2023-05-01T08:02:00;100583.90;;;16.66;39.34
34696;BME280;20918;51.138;17.370;2023-05-01T08:05:09;100583.88;;;16.87;38.98
34696;BME280;20918;51.138;17.370;2023-05-01T08:08:13;100584.24;;;17.00;38.64
34696;BME280;20918;51.138;17.370;2023-05-01T08:11:22;100586.27;;;17.02;38.28
34696;BME280;20918;51.138;17.370;2023-05-01T08:14:36;100585.66;;;16.70;37.92
34696;BME280;20918;51.138;17.370;2023-05-01T08:17:40;100586.26;;;16.36;37.08
34696;BME280;20918;51.138;17.370;2023-05-01T08:20:47;100587.17;;;16.04;37.18
34696;BME280;20918;51.138;17.370;2023-05-01T08:23:49;100581.21;;;15.92;37.48
34696;BME280;20918;51.138;17.370;2023-05-01T08:26:56;100574.20;;;16.14;38.28
34696;BME280;20918;51.138;17.370;2023-05-01T08:30:02;100572.20;;;16.30;37.31
34696;BME280;20918;51.138;17.370;2023-05-01T08:33:11;100564.70;;;16.19;37.62
34696;BME280;20918;51.138;17.370;2023-05-01T08:36:26;100561.77;;;16.46;37.48
34696;BME280;20918;51.138;17.370;2023-05-01T08:39:41;100563.23;;;16.61;36.72
34696;BME280;20918;51.138;17.370;2023-05-01T08:42:55;100565.44;;;16.59;36.56
34696;BME280;20918;51.138;17.370;2023-05-01T08:46:18;100562.55;;;16.50;36.53
34696;BME280;20918;51.138;17.370;2023-05-01T08:49:44;100559.23;;;16.67;36.80
34696;BME280;20918;51.138;17.370;2023-05-01T08:53:17;100555.42;;;16.81;36.08
34696;BME280;20918;51.138;17.370;2023-05-01T08:56:31;100550.77;;;16.97;35.59
34696;BME280;20918;51.138;17.370;2023-05-01T08:59:45;100551.56;;;17.16;36.10
34696;BME280;20918;51.138;17.370;2023-05-01T09:03:05;100547.89;;;17.32;35.92
34696;BME280;20918;51.138;17.370;2023-05-01T09:06:23;100544.04;;;17.29;35.93
34696;BME280;20918;51.138;17.370;2023-05-01T09:09:34;100540.81;;;17.38;35.16
34696;BME280;20918;51.138;17.370;2023-05-01T09:12:47;100543.60;;;17.14;34.85
34696;BME280;20918;51.138;17.370;2023-05-01T09:16:28;100539.13;;;17.02;35.12
34696;BME280;20918;51.138;17.370;2023-05-01T09:20:03;100529.76;;;17.28;35.63
34696;BME280;20918;51.138;17.370;2023-05-01T09:23:27;100529.05;;;17.24;34.65
34696;BME280;20918;51.138;17.370;2023-05-01T09:26:39;100522.89;;;16.96;34.19
34696;BME280;20918;51.138;17.370;2023-05-01T09:29:56;100516.00;;;17.04;34.62
34696;BME280;20918;51.138;17.370;2023-05-01T09:33:23;100512.81;;;17.35;35.45
34696;BME280;20918;51.138;17.370;2023-05-01T09:40:36;100500.95;;;18.19;34.57
34696;BME280;20918;51.138;17.370;2023-05-01T09:43:40;100501.19;;;18.41;34.48
34696;BME280;20918;51.138;17.370;2023-05-01T09:47:21;100492.69;;;18.53;34.74
34696;BME280;20918;51.138;17.370;2023-05-01T09:50:37;100488.92;;;18.53;34.32
34696;BME280;20918;51.138;17.370;2023-05-01T09:54:07;100490.33;;;18.36;33.80
34696;BME280;20918;51.138;17.370;2023-05-01T09:57:41;100484.67;;;18.27;33.59
34696;BME280;20918;51.138;17.370;2023-05-01T10:00:49;100478.98;;;18.45;33.81
34696;BME280;20918;51.138;17.370;2023-05-01T10:04:00;100484.46;;;18.49;33.56
34696;BME280;20918;51.138;17.370;2023-05-01T10:07:14;100474.60;;;18.46;33.49
34696;BME280;20918;51.138;17.370;2023-05-01T10:10:32;100470.31;;;18.53;32.67
34696;BME280;20918;51.138;17.370;2023-05-01T10:14:19;100469.84;;;18.65;32.72
34696;BME280;20918;51.138;17.370;2023-05-01T10:17:49;100463.45;;;18.37;31.87
34696;BME280;20918;51.138;17.370;2023-05-01T10:21:01;100458.58;;;17.89;31.82
34696;BME280;20918;51.138;17.370;2023-05-01T10:24:31;100460.36;;;17.71;32.87
34696;BME280;20918;51.138;17.370;2023-05-01T11:09:42;100393.59;;;19.14;29.54
34696;BME280;20918;51.138;17.370;2023-05-01T11:26:38;100379.49;;;18.89;28.78
34696;BME280;20918;51.138;17.370;2023-05-01T11:30:43;100367.52;;;18.93;28.98
34696;BME280;20918;51.138;17.370;2023-05-01T11:55:23;100329.65;;;18.92;29.43
34696;BME280;20918;51.138;17.370;2023-05-01T12:02:31;100317.90;;;18.97;28.52
34696;BME280;20918;51.138;17.370;2023-05-01T12:17:22;100292.40;;;19.22;28.60
34696;BME280;20918;51.138;17.370;2023-05-01T12:56:02;100243.52;;;19.40;26.99
34696;BME280;20918;51.138;17.370;2023-05-01T12:59:36;100233.33;;;19.42;27.76
34696;BME280;20918;51.138;17.370;2023-05-01T13:28:26;100193.75;;;19.49;25.25
34696;BME280;20918;51.138;17.370;2023-05-01T13:31:52;100187.96;;;19.54;26.17
34696;BME280;20918;51.138;17.370;2023-05-01T13:43:13;100174.84;;;19.45;26.07
34696;BME280;20918;51.138;17.370;2023-05-01T13:47:24;100170.02;;;19.46;26.42
34696;BME280;20918;51.138;17.370;2023-05-01T13:54:30;100148.94;;;19.49;26.19
34696;BME280;20918;51.138;17.370;2023-05-01T13:57:50;100150.85;;;19.47;25.46
34696;BME280;20918;51.138;17.370;2023-05-01T14:00:51;100146.77;;;19.43;25.93
34696;BME280;20918;51.138;17.370;2023-05-01T14:04:05;100148.10;;;19.39;25.54
34696;BME280;20918;51.138;17.370;2023-05-01T14:07:24;100145.74;;;19.34;26.34
34696;BME280;20918;51.138;17.370;2023-05-01T14:10:28;100139.30;;;19.30;26.01
34696;BME280;20918;51.138;17.370;2023-05-01T14:13:29;100134.83;;;19.26;25.64
34696;BME280;20918;51.138;17.370;2023-05-01T14:21:23;100121.10;;;19.24;26.00
34696;BME280;20918;51.138;17.370;2023-05-01T14:33:18;100104.80;;;19.38;27.24
34696;BME280;20918;51.138;17.370;2023-05-01T14:36:53;100102.66;;;19.35;26.85
34696;BME280;20918;51.138;17.370;2023-05-01T14:43:43;100089.34;;;19.15;26.48
34696;BME280;20918;51.138;17.370;2023-05-01T14:51:11;100082.35;;;19.30;27.42
34696;BME280;20918;51.138;17.370;2023-05-01T14:54:12;100071.49;;;19.31;27.87
34696;BME280;20918;51.138;17.370;2023-05-01T14:57:39;100074.06;;;19.30;27.84
34696;BME280;20918;51.138;17.370;2023-05-01T15:00:45;100072.58;;;19.27;27.99
34696;BME280;20918;51.138;17.370;2023-05-01T15:04:00;100067.36;;;19.23;27.35
34696;BME280;20918;51.138;17.370;2023-05-01T15:40:05;100046.48;;;19.05;29.97
34696;BME280;20918;51.138;17.370;2023-05-01T15:43:12;100040.20;;;19.06;29.42
34696;BME280;20918;51.138;17.370;2023-05-01T15:46:13;100030.14;;;19.11;30.10
34696;BME280;20918;51.138;17.370;2023-05-01T15:53:57;100020.11;;;19.12;29.94
34696;BME280;20918;51.138;17.370;2023-05-01T15:56:57;100015.41;;;19.15;30.19
34696;BME280;20918;51.138;17.370;2023-05-01T16:00:03;100022.08;;;19.11;30.24
34696;BME280;20918;51.138;17.370;2023-05-01T16:06:29;100021.71;;;18.95;30.96
34696;BME280;20918;51.138;17.370;2023-05-01T16:09:31;100023.05;;;18.91;31.34
34696;BME280;20918;51.138;17.370;2023-05-01T16:12:33;100024.84;;;18.86;31.66
34696;BME280;20918;51.138;17.370;2023-05-01T16:15:35;100026.66;;;18.77;32.03
34696;BME280;20918;51.138;17.370;2023-05-01T16:18:54;100017.95;;;18.68;32.31
34696;BME280;20918;51.138;17.370;2023-05-01T16:21:55;100013.60;;;18.70;32.84
34696;BME280;20918;51.138;17.370;2023-05-01T16:25:40;100013.52;;;18.69;33.29
34696;BME280;20918;51.138;17.370;2023-05-01T16:29:15;100010.39;;;18.64;33.82
34696;BME280;20918;51.138;17.370;2023-05-01T16:32:30;100007.62;;;18.65;34.90
34696;BME280;20918;51.138;17.370;2023-05-01T16:35:56;100005.52;;;18.61;35.39
34696;BME280;20918;51.138;17.370;2023-05-01T16:39:20;100001.61;;;18.58;35.84
34696;BME280;20918;51.138;17.370;2023-05-01T16:42:24;100003.21;;;18.54;36.41
34696;BME280;20918;51.138;17.370;2023-05-01T16:45:33;99998.98;;;18.51;36.74
34696;BME280;20918;51.138;17.370;2023-05-01T16:48:39;100000.64;;;18.51;37.39
34696;BME280;20918;51.138;17.370;2023-05-01T16:52:02;100000.98;;;18.46;38.04
34696;BME280;20918;51.138;17.370;2023-05-01T16:55:36;100003.02;;;18.35;38.46
34696;BME280;20918;51.138;17.370;2023-05-01T16:58:37;100005.54;;;18.30;39.13
34696;BME280;20918;51.138;17.370;2023-05-01T17:01:48;100006.25;;;18.28;39.32
34696;BME280;20918;51.138;17.370;2023-05-01T17:04:52;100010.18;;;18.24;39.54
34696;BME280;20918;51.138;17.370;2023-05-01T17:07:55;100015.75;;;18.15;39.92
34696;BME280;20918;51.138;17.370;2023-05-01T17:11:19;100013.09;;;18.08;40.35
34696;BME280;20918;51.138;17.370;2023-05-01T17:14:21;100014.15;;;18.02;40.44
34696;BME280;20918;51.138;17.370;2023-05-01T17:17:35;100010.23;;;17.95;40.79
34696;BME280;20918;51.138;17.370;2023-05-01T17:20:43;100007.92;;;17.85;40.93
34696;BME280;20918;51.138;17.370;2023-05-01T17:23:48;100006.42;;;17.77;41.03
34696;BME280;20918;51.138;17.370;2023-05-01T17:26:52;100012.02;;;17.71;41.29
34696;BME280;20918;51.138;17.370;2023-05-01T17:34:39;100001.80;;;17.53;41.88
34696;BME280;20918;51.138;17.370;2023-05-01T17:38:05;99996.20;;;17.44;42.07
34696;BME280;20918;51.138;17.370;2023-05-01T17:41:09;99995.09;;;17.37;42.28
34696;BME280;20918;51.138;17.370;2023-05-01T17:44:12;99995.95;;;17.30;42.39
34696;BME280;20918;51.138;17.370;2023-05-01T17:47:18;99990.86;;;17.22;42.54
34696;BME280;20918;51.138;17.370;2023-05-01T17:50:57;99992.88;;;17.14;42.85
34696;BME280;20918;51.138;17.370;2023-05-01T17:54:12;99991.89;;;17.02;43.10
34696;BME280;20918;51.138;17.370;2023-05-01T18:01:40;99993.40;;;16.78;43.60
34696;BME280;20918;51.138;17.370;2023-05-01T18:05:04;99992.09;;;16.68;43.85
34696;BME280;20918;51.138;17.370;2023-05-01T18:11:56;99993.32;;;16.48;44.31
34696;BME280;20918;51.138;17.370;2023-05-01T18:15:02;99998.07;;;16.41;44.56
34696;BME280;20918;51.138;17.370;2023-05-01T18:18:03;99997.08;;;16.38;44.69
34696;BME280;20918;51.138;17.370;2023-05-01T18:21:33;99996.52;;;16.33;44.86
34696;BME280;20918;51.138;17.370;2023-05-01T18:24:37;99997.13;;;16.30;45.04
34696;BME280;20918;51.138;17.370;2023-05-01T18:27:38;99999.60;;;16.26;45.19
34696;BME280;20918;51.138;17.370;2023-05-01T18:30:41;99997.67;;;16.22;45.27
34696;BME280;20918;51.138;17.370;2023-05-01T18:33:45;100001.50;;;16.16;45.46
34696;BME280;20918;51.138;17.370;2023-05-01T18:37:09;100003.17;;;16.09;45.65
34696;BME280;20918;51.138;17.370;2023-05-01T18:40:33;100009.73;;;16.03;45.94
34696;BME280;20918;51.138;17.370;2023-05-01T18:43:46;100009.60;;;15.99;46.23
34696;BME280;20918;51.138;17.370;2023-05-01T18:47:11;100013.14;;;15.94;46.30
34696;BME280;20918;51.138;17.370;2023-05-01T18:50:12;100013.95;;;15.81;46.59
34696;BME280;20918;51.138;17.370;2023-05-01T18:53:18;100015.07;;;15.70;46.80
34696;BME280;20918;51.138;17.370;2023-05-01T19:00:33;100022.47;;;15.62;47.40
34696;BME280;20918;51.138;17.370;2023-05-01T19:03:35;100020.86;;;15.58;47.65
34696;BME280;20918;51.138;17.370;2023-05-01T19:18:50;100016.39;;;15.37;48.46
34696;BME280;20918;51.138;17.370;2023-05-01T19:21:54;100019.20;;;15.30;48.48
34696;BME280;20918;51.138;17.370;2023-05-01T19:24:57;100019.18;;;15.23;48.73
34696;BME280;20918;51.138;17.370;2023-05-01T19:27:59;100015.00;;;15.17;48.90
34696;BME280;20918;51.138;17.370;2023-05-01T19:31:02;100016.95;;;15.02;49.05
34696;BME280;20918;51.138;17.370;2023-05-01T19:34:14;100014.23;;;14.94;49.21
34696;BME280;20918;51.138;17.370;2023-05-01T19:37:17;100013.77;;;14.92;49.35
34696;BME280;20918;51.138;17.370;2023-05-01T19:40:18;100012.23;;;14.89;49.70
34696;BME280;20918;51.138;17.370;2023-05-01T19:43:18;100016.98;;;14.84;49.90
34696;BME280;20918;51.138;17.370;2023-05-01T19:46:25;100021.84;;;14.79;50.12
34696;BME280;20918;51.138;17.370;2023-05-01T19:49:26;100022.29;;;14.73;50.26
34696;BME280;20918;51.138;17.370;2023-05-01T19:52:30;100016.64;;;14.61;50.27
34696;BME280;20918;51.138;17.370;2023-05-01T19:55:31;100020.64;;;14.51;50.48
34696;BME280;20918;51.138;17.370;2023-05-01T19:58:35;100015.01;;;14.45;50.67
34696;BME280;20918;51.138;17.370;2023-05-01T20:01:36;100015.02;;;14.42;50.88
34696;BME280;20918;51.138;17.370;2023-05-01T20:04:38;100016.98;;;14.40;50.94
34696;BME280;20918;51.138;17.370;2023-05-01T20:07:42;100015.52;;;14.36;51.25
34696;BME280;20918;51.138;17.370;2023-05-01T20:10:42;100016.91;;;14.32;51.32
34696;BME280;20918;51.138;17.370;2023-05-01T20:13:43;100016.68;;;14.27;51.56
34696;BME280;20918;51.138;17.370;2023-05-01T20:16:45;100018.36;;;14.22;51.79
34696;BME280;20918;51.138;17.370;2023-05-01T20:19:48;100017.66;;;14.16;52.33
34696;BME280;20918;51.138;17.370;2023-05-01T20:23:15;100018.49;;;14.13;52.38
34696;BME280;20918;51.138;17.370;2023-05-01T20:26:24;100018.69;;;14.11;52.58
34696;BME280;20918;51.138;17.370;2023-05-01T20:29:25;100012.55;;;14.10;52.93
34696;BME280;20918;51.138;17.370;2023-05-01T20:32:26;100009.23;;;14.10;52.95
34696;BME280;20918;51.138;17.370;2023-05-01T20:35:27;100012.10;;;14.10;53.16
34696;BME280;20918;51.138;17.370;2023-05-01T20:38:31;100010.35;;;14.07;53.25
34696;BME280;20918;51.138;17.370;2023-05-01T20:41:32;100010.39;;;14.02;53.43
34696;BME280;20918;51.138;17.370;2023-05-01T20:44:32;100014.67;;;13.99;53.77
34696;BME280;20918;51.138;17.370;2023-05-01T20:47:36;100013.40;;;13.99;53.87
34696;BME280;20918;51.138;17.370;2023-05-01T20:50:39;100012.36;;;14.01;54.07
34696;BME280;20918;51.138;17.370;2023-05-01T20:53:43;100017.23;;;14.02;54.36
34696;BME280;20918;51.138;17.370;2023-05-01T21:00:20;100019.02;;;14.07;54.92
34696;BME280;20918;51.138;17.370;2023-05-01T21:03:32;100014.48;;;14.09;54.86
34696;BME280;20918;51.138;17.370;2023-05-01T21:06:36;100011.33;;;14.12;54.96
34696;BME280;20918;51.138;17.370;2023-05-01T21:13:59;100014.45;;;14.09;55.03
34696;BME280;20918;51.138;17.370;2023-05-01T21:17:06;100012.44;;;14.05;55.12
34696;BME280;20918;51.138;17.370;2023-05-01T21:20:39;100015.11;;;14.01;55.29
34696;BME280;20918;51.138;17.370;2023-05-01T21:28:20;100015.36;;;13.89;55.62
34696;BME280;20918;51.138;17.370;2023-05-01T21:35:27;100019.37;;;13.78;55.78
34696;BME280;20918;51.138;17.370;2023-05-01T21:38:55;100022.63;;;13.69;55.83
34696;BME280;20918;51.138;17.370;2023-05-01T21:42:57;100019.23;;;13.58;56.02
34696;BME280;20918;51.138;17.370;2023-05-01T21:46:25;100018.78;;;13.47;56.31
34696;BME280;20918;51.138;17.370;2023-05-01T21:49:29;100021.22;;;13.37;56.64
34696;BME280;20918;51.138;17.370;2023-05-01T21:52:44;100019.66;;;13.28;56.98
34696;BME280;20918;51.138;17.370;2023-05-01T21:59:51;100015.83;;;13.09;57.56
34696;BME280;20918;51.138;17.370;2023-05-01T22:03:18;100015.35;;;13.00;57.79
34696;BME280;20918;51.138;17.370;2023-05-01T22:07:06;100016.56;;;12.92;58.02
34696;BME280;20918;51.138;17.370;2023-05-01T22:13:51;100016.71;;;12.77;58.59
34696;BME280;20918;51.138;17.370;2023-05-01T22:17:18;100019.09;;;12.71;58.96
34696;BME280;20918;51.138;17.370;2023-05-01T22:20:54;100015.71;;;12.66;59.12
34696;BME280;20918;51.138;17.370;2023-05-01T22:24:33;100014.90;;;12.61;59.30
34696;BME280;20918;51.138;17.370;2023-05-01T22:28:04;100012.14;;;12.54;59.62
34696;BME280;20918;51.138;17.370;2023-05-01T22:31:08;100017.14;;;12.50;59.68
34696;BME280;20918;51.138;17.370;2023-05-01T22:34:33;100017.27;;;12.44;59.77
34696;BME280;20918;51.138;17.370;2023-05-01T22:37:43;100016.12;;;12.39;59.94
34696;BME280;20918;51.138;17.370;2023-05-01T22:41:19;100013.41;;;12.33;60.15
34696;BME280;20918;51.138;17.370;2023-05-01T22:44:52;100007.38;;;12.27;60.30
34696;BME280;20918;51.138;17.370;2023-05-01T22:47:56;100005.67;;;12.23;60.23
34696;BME280;20918;51.138;17.370;2023-05-01T22:54:57;100004.52;;;12.14;60.44
34696;BME280;20918;51.138;17.370;2023-05-01T22:58:28;100001.65;;;12.09;60.79
34696;BME280;20918;51.138;17.370;2023-05-01T23:01:45;99995.66;;;12.06;60.70
34696;BME280;20918;51.138;17.370;2023-05-01T23:05:31;99999.23;;;12.03;60.96
34696;BME280;20918;51.138;17.370;2023-05-01T23:16:47;99996.17;;;11.97;61.68
34696;BME280;20918;51.138;17.370;2023-05-01T23:20:01;99995.59;;;11.95;61.72
34696;BME280;20918;51.138;17.370;2023-05-01T23:32:15;99986.20;;;11.79;62.34
34696;BME280;20918;51.138;17.370;2023-05-01T23:36:23;99985.06;;;11.72;62.37
34696;BME280;20918;51.138;17.370;2023-05-01T23:40:07;99984.18;;;11.66;62.58
34696;BME280;20918;51.138;17.370;2023-05-01T23:52:10;99972.73;;;11.59;62.85
34696;BME280;20918;51.138;17.370;2023-05-01T23:55:43;99974.19;;;11.57;63.01
34696;BME280;20918;51.138;17.370;2023-05-01T23:59:08;99974.64;;;11.56;63.02
